sensor_id;sensor_type;location;lat;lon;timestamp;P1;durP1;ratioP1;P2;durP2;ratioP2
22060;SDS011;11194;48.092;-1.382;2023-07-13T00:00:22;10.90;;;6.00;;
22060;SDS011;11194;48.092;-1.382;2023-07-13T00:02:48;10.10;;;4.93;;
22060;SDS011;11194;48.092;-1.382;2023-07-13T00:05:19;11.82;;;5.35;;
22060;SDS011;11194;48.092;-1.382;2023-07-13T00:07:46;13.30;;;6.05;;
22060;SDS011;11194;48.092;-1.382;2023-07-13T00:10:13;8.10;;;4.93;;
22060;SDS011;11194;48.092;-1.382;2023-07-13T00:12:40;9.27;;;5.25;;
22060;SDS011;11194;48.092;-1.382;2023-07-13T00:15:15;9.20;;;5.30;;
22060;SDS011;11194;48.092;-1.382;2023-07-13T00:17:42;10.25;;;5.28;;
22060;SDS011;11194;48.092;-1.382;2023-07-13T00:20:12;8.80;;;4.88;;
22060;SDS011;11194;48.092;-1.382;2023-07-13T00:22:39;13.35;;;5.97;;
22060;SDS011;11194;48.092;-1.382;2023-07-13T00:25:06;11.18;;;5.63;;
22060;SDS011;11194;48.092;-1.382;2023-07-13T00:27:33;10.85;;;6.05;;
22060;SDS011;11194;48.092;-1.382;2023-07-13T00:30:00;10.57;;;5.28;;
22060;SDS011;11194;48.092;-1.382;2023-07-13T00:32:27;9.95;;;6.07;;
22060;SDS011;11194;48.092;-1.382;2023-07-13T00:34:57;11.88;;;5.50;;
22060;SDS011;11194;48.092;-1.382;2023-07-13T00:37:25;9.07;;;4.88;;
22060;SDS011;11194;48.092;-1.382;2023-07-13T00:39:52;10.45;;;5.22;;
22060;SDS011;11194;48.092;-1.382;2023-07-13T00:42:19;7.55;;;4.72;;
22060;SDS011;11194;48.092;-1.382;2023-07-13T00:45:03;8.50;;;4.68;;
22060;SDS011;11194;48.092;-1.382;2023-07-13T00:47:30;8.45;;;4.97;;
22060;SDS011;11194;48.092;-1.382;2023-07-13T00:49:57;5.88;;;4.45;;
22060;SDS011;11194;48.092;-1.382;2023-07-13T00:52:24;9.15;;;4.43;;
22060;SDS011;11194;48.092;-1.382;2023-07-13T00:54:51;8.68;;;4.53;;
22060;SDS011;11194;48.092;-1.382;2023-07-13T00:57:18;8.25;;;4.53;;
22060;SDS011;11194;48.092;-1.382;2023-07-13T00:59:47;10.70;;;4.70;;
22060;SDS011;11194;48.092;-1.382;2023-07-13T01:02:15;12.00;;;4.75;;
22060;SDS011;11194;48.092;-1.382;2023-07-13T01:04:42;8.85;;;4.82;;
22060;SDS011;11194;48.092;-1.382;2023-07-13T01:07:09;9.88;;;4.90;;
22060;SDS011;11194;48.092;-1.382;2023-07-13T01:09:36;7.68;;;4.88;;
22060;SDS011;11194;48.092;-1.382;2023-07-13T01:12:03;5.38;;;3.97;;
22060;SDS011;11194;48.092;-1.382;2023-07-13T01:14:30;7.70;;;4.80;;
22060;SDS011;11194;48.092;-1.382;2023-07-13T01:16:57;6.32;;;4.10;;
22060;SDS011;11194;48.092;-1.382;2023-07-13T01:21:55;9.93;;;4.40;;
22060;SDS011;11194;48.092;-1.382;2023-07-13T01:24:21;5.70;;;3.80;;
22060;SDS011;11194;48.092;-1.382;2023-07-13T01:26:48;6.78;;;4.22;;
22060;SDS011;11194;48.092;-1.382;2023-07-13T01:29:14;6.22;;;4.45;;
22060;SDS011;11194;48.092;-1.382;2023-07-13T01:31:41;6.72;;;4.43;;
22060;SDS011;11194;48.092;-1.382;2023-07-13T01:34:09;8.10;;;4.22;;
22060;SDS011;11194;48.092;-1.382;2023-07-13T01:36:36;10.13;;;4.63;;
22060;SDS011;11194;48.092;-1.382;2023-07-13T01:39:03;7.78;;;4.38;;
22060;SDS011;11194;48.092;-1.382;2023-07-13T01:41:29;6.07;;;4.13;;
22060;SDS011;11194;48.092;-1.382;2023-07-13T01:43:56;8.35;;;4.18;;
22060;SDS011;11194;48.092;-1.382;2023-07-13T01:46:22;12.55;;;3.85;;
22060;SDS011;11194;48.092;-1.382;2023-07-13T01:48:49;8.18;;;4.15;;
22060;SDS011;11194;48.092;-1.382;2023-07-13T01:51:15;7.13;;;4.20;;
22060;SDS011;11194;48.092;-1.382;2023-07-13T01:53:42;7.65;;;3.70;;
22060;SDS011;11194;48.092;-1.382;2023-07-13T01:56:08;7.90;;;3.72;;
22060;SDS011;11194;48.092;-1.382;2023-07-13T01:58:35;6.78;;;4.10;;
22060;SDS011;11194;48.092;-1.382;2023-07-13T02:01:01;5.35;;;3.53;;
22060;SDS011;11194;48.092;-1.382;2023-07-13T02:03:28;8.40;;;4.55;;
22060;SDS011;11194;48.092;-1.382;2023-07-13T02:05:54;6.78;;;4.55;;
22060;SDS011;11194;48.092;-1.382;2023-07-13T02:08:21;13.48;;;4.55;;
22060;SDS011;11194;48.092;-1.382;2023-07-13T02:10:47;7.93;;;4.20;;
22060;SDS011;11194;48.092;-1.382;2023-07-13T02:13:14;7.70;;;4.68;;
22060;SDS011;11194;48.092;-1.382;2023-07-13T02:15:40;7.57;;;4.80;;
22060;SDS011;11194;48.092;-1.382;2023-07-13T02:18:07;11.25;;;5.32;;
22060;SDS011;11194;48.092;-1.382;2023-07-13T02:20:33;8.15;;;5.03;;
22060;SDS011;11194;48.092;-1.382;2023-07-13T02:23:00;9.57;;;4.45;;
22060;SDS011;11194;48.092;-1.382;2023-07-13T02:25:26;10.88;;;4.90;;
22060;SDS011;11194;48.092;-1.382;2023-07-13T02:27:53;4.85;;;4.22;;
22060;SDS011;11194;48.092;-1.382;2023-07-13T02:30:20;11.27;;;5.20;;
22060;SDS011;11194;48.092;-1.382;2023-07-13T02:32:48;6.25;;;4.57;;
22060;SDS011;11194;48.092;-1.382;2023-07-13T02:35:14;8.05;;;5.07;;
22060;SDS011;11194;48.092;-1.382;2023-07-13T02:37:41;10.85;;;4.28;;
22060;SDS011;11194;48.092;-1.382;2023-07-13T02:40:07;8.25;;;4.18;;
22060;SDS011;11194;48.092;-1.382;2023-07-13T02:42:34;10.00;;;4.70;;
22060;SDS011;11194;48.092;-1.382;2023-07-13T02:45:01;7.25;;;4.30;;
22060;SDS011;11194;48.092;-1.382;2023-07-13T02:47:27;8.52;;;4.57;;
22060;SDS011;11194;48.092;-1.382;2023-07-13T02:49:54;8.68;;;4.40;;
22060;SDS011;11194;48.092;-1.382;2023-07-13T02:52:20;8.82;;;4.30;;
22060;SDS011;11194;48.092;-1.382;2023-07-13T02:54:47;9.07;;;4.38;;
22060;SDS011;11194;48.092;-1.382;2023-07-13T02:57:13;6.95;;;4.28;;
22060;SDS011;11194;48.092;-1.382;2023-07-13T02:59:39;8.60;;;4.53;;
22060;SDS011;11194;48.092;-1.382;2023-07-13T03:02:06;9.07;;;4.28;;
22060;SDS011;11194;48.092;-1.382;2023-07-13T03:04:34;9.52;;;4.35;;
22060;SDS011;11194;48.092;-1.382;2023-07-13T03:07:01;9.63;;;4.68;;
22060;SDS011;11194;48.092;-1.382;2023-07-13T03:09:28;8.13;;;4.75;;
22060;SDS011;11194;48.092;-1.382;2023-07-13T03:11:55;8.38;;;4.63;;
22060;SDS011;11194;48.092;-1.382;2023-07-13T03:14:21;7.32;;;4.72;;
22060;SDS011;11194;48.092;-1.382;2023-07-13T03:16:49;8.02;;;4.70;;
22060;SDS011;11194;48.092;-1.382;2023-07-13T03:19:15;9.68;;;4.45;;
22060;SDS011;11194;48.092;-1.382;2023-07-13T03:21:42;11.15;;;4.63;;
22060;SDS011;11194;48.092;-1.382;2023-07-13T03:24:09;9.05;;;4.60;;
22060;SDS011;11194;48.092;-1.382;2023-07-13T03:26:35;6.57;;;4.20;;
22060;SDS011;11194;48.092;-1.382;2023-07-13T03:29:02;8.02;;;4.70;;
22060;SDS011;11194;48.092;-1.382;2023-07-13T03:31:29;11.88;;;4.63;;
22060;SDS011;11194;48.092;-1.382;2023-07-13T03:33:56;7.93;;;4.72;;
22060;SDS011;11194;48.092;-1.382;2023-07-13T03:36:24;8.23;;;5.00;;
22060;SDS011;11194;48.092;-1.382;2023-07-13T03:38:52;8.35;;;5.20;;
22060;SDS011;11194;48.092;-1.382;2023-07-13T03:41:19;12.02;;;4.15;;
22060;SDS011;11194;48.092;-1.382;2023-07-13T03:43:45;15.85;;;4.75;;
22060;SDS011;11194;48.092;-1.382;2023-07-13T03:46:15;6.35;;;4.60;;
22060;SDS011;11194;48.092;-1.382;2023-07-13T03:48:43;9.48;;;5.43;;
22060;SDS011;11194;48.092;-1.382;2023-07-13T03:51:10;12.75;;;5.22;;
22060;SDS011;11194;48.092;-1.382;2023-07-13T03:53:40;12.43;;;5.68;;
22060;SDS011;11194;48.092;-1.382;2023-07-13T03:56:07;10.43;;;5.57;;
22060;SDS011;11194;48.092;-1.382;2023-07-13T03:58:35;9.23;;;5.97;;
22060;SDS011;11194;48.092;-1.382;2023-07-13T04:01:03;8.63;;;6.05;;
22060;SDS011;11194;48.092;-1.382;2023-07-13T04:03:31;8.45;;;6.05;;
22060;SDS011;11194;48.092;-1.382;2023-07-13T04:05:58;17.00;;;7.07;;
22060;SDS011;11194;48.092;-1.382;2023-07-13T04:08:26;13.27;;;6.78;;
22060;SDS011;11194;48.092;-1.382;2023-07-13T04:10:53;13.02;;;6.65;;
22060;SDS011;11194;48.092;-1.382;2023-07-13T04:13:19;11.63;;;6.30;;
22060;SDS011;11194;48.092;-1.382;2023-07-13T04:15:46;10.20;;;5.93;;
22060;SDS011;11194;48.092;-1.382;2023-07-13T04:18:13;10.18;;;5.93;;
22060;SDS011;11194;48.092;-1.382;2023-07-13T04:20:39;13.30;;;5.95;;
22060;SDS011;11194;48.092;-1.382;2023-07-13T04:23:06;9.23;;;6.18;;
22060;SDS011;11194;48.092;-1.382;2023-07-13T04:25:32;10.65;;;5.40;;
22060;SDS011;11194;48.092;-1.382;2023-07-13T04:27:58;14.48;;;5.40;;
22060;SDS011;11194;48.092;-1.382;2023-07-13T04:30:25;7.97;;;4.63;;
22060;SDS011;11194;48.092;-1.382;2023-07-13T04:32:52;8.77;;;4.45;;
22060;SDS011;11194;48.092;-1.382;2023-07-13T04:35:19;12.45;;;4.97;;
22060;SDS011;11194;48.092;-1.382;2023-07-13T04:37:49;10.07;;;4.88;;
22060;SDS011;11194;48.092;-1.382;2023-07-13T04:40:17;13.00;;;4.88;;
22060;SDS011;11194;48.092;-1.382;2023-07-13T04:42:46;14.40;;;5.00;;
22060;SDS011;11194;48.092;-1.382;2023-07-13T04:45:13;8.77;;;5.18;;
22060;SDS011;11194;48.092;-1.382;2023-07-13T04:47:40;12.10;;;4.90;;
22060;SDS011;11194;48.092;-1.382;2023-07-13T04:50:07;8.75;;;4.72;;
22060;SDS011;11194;48.092;-1.382;2023-07-13T04:52:36;8.75;;;4.32;;
22060;SDS011;11194;48.092;-1.382;2023-07-13T04:55:03;7.95;;;4.60;;
22060;SDS011;11194;48.092;-1.382;2023-07-13T04:57:29;6.72;;;4.60;;
22060;SDS011;11194;48.092;-1.382;2023-07-13T04:59:59;11.05;;;4.75;;
22060;SDS011;11194;48.092;-1.382;2023-07-13T05:02:26;14.10;;;5.53;;
22060;SDS011;11194;48.092;-1.382;2023-07-13T05:04:53;8.10;;;5.20;;
22060;SDS011;11194;48.092;-1.382;2023-07-13T05:07:21;13.55;;;5.32;;
22060;SDS011;11194;48.092;-1.382;2023-07-13T05:09:48;9.50;;;5.05;;
22060;SDS011;11194;48.092;-1.382;2023-07-13T05:12:17;7.45;;;4.75;;
22060;SDS011;11194;48.092;-1.382;2023-07-13T05:14:43;9.75;;;5.15;;
22060;SDS011;11194;48.092;-1.382;2023-07-13T05:17:10;13.95;;;5.78;;
22060;SDS011;11194;48.092;-1.382;2023-07-13T05:19:37;11.30;;;4.40;;
22060;SDS011;11194;48.092;-1.382;2023-07-13T05:22:04;8.38;;;4.93;;
22060;SDS011;11194;48.092;-1.382;2023-07-13T05:24:30;10.75;;;4.72;;
22060;SDS011;11194;48.092;-1.382;2023-07-13T05:26:57;8.23;;;4.50;;
22060;SDS011;11194;48.092;-1.382;2023-07-13T05:29:24;11.25;;;5.00;;
22060;SDS011;11194;48.092;-1.382;2023-07-13T05:31:50;9.77;;;4.05;;
22060;SDS011;11194;48.092;-1.382;2023-07-13T05:34:17;12.05;;;4.88;;
22060;SDS011;11194;48.092;-1.382;2023-07-13T05:36:44;9.35;;;4.95;;
22060;SDS011;11194;48.092;-1.382;2023-07-13T05:39:10;8.50;;;4.72;;
22060;SDS011;11194;48.092;-1.382;2023-07-13T05:41:37;10.38;;;4.85;;
22060;SDS011;11194;48.092;-1.382;2023-07-13T05:44:03;13.82;;;5.28;;
22060;SDS011;11194;48.092;-1.382;2023-07-13T05:46:30;9.20;;;4.68;;
22060;SDS011;11194;48.092;-1.382;2023-07-13T05:48:57;10.05;;;5.38;;
22060;SDS011;11194;48.092;-1.382;2023-07-13T05:51:23;10.30;;;4.80;;
22060;SDS011;11194;48.092;-1.382;2023-07-13T05:53:50;12.27;;;4.55;;
22060;SDS011;11194;48.092;-1.382;2023-07-13T05:56:17;11.35;;;4.85;;
22060;SDS011;11194;48.092;-1.382;2023-07-13T05:58:44;12.43;;;4.95;;
22060;SDS011;11194;48.092;-1.382;2023-07-13T06:01:11;11.52;;;4.93;;
22060;SDS011;11194;48.092;-1.382;2023-07-13T06:03:38;7.93;;;4.38;;
22060;SDS011;11194;48.092;-1.382;2023-07-13T06:06:05;8.10;;;4.70;;
22060;SDS011;11194;48.092;-1.382;2023-07-13T06:08:32;9.35;;;4.40;;
22060;SDS011;11194;48.092;-1.382;2023-07-13T06:11:03;13.05;;;4.53;;
22060;SDS011;11194;48.092;-1.382;2023-07-13T06:13:30;10.93;;;4.60;;
22060;SDS011;11194;48.092;-1.382;2023-07-13T06:15:57;8.63;;;4.90;;
22060;SDS011;11194;48.092;-1.382;2023-07-13T06:18:23;10.80;;;4.45;;
22060;SDS011;11194;48.092;-1.382;2023-07-13T06:20:50;10.48;;;4.30;;
22060;SDS011;11194;48.092;-1.382;2023-07-13T06:23:17;13.20;;;4.25;;
22060;SDS011;11194;48.092;-1.382;2023-07-13T06:25:43;10.45;;;4.78;;
22060;SDS011;11194;48.092;-1.382;2023-07-13T06:28:10;9.50;;;4.72;;
22060;SDS011;11194;48.092;-1.382;2023-07-13T06:30:38;9.98;;;4.15;;
22060;SDS011;11194;48.092;-1.382;2023-07-13T06:33:07;9.70;;;4.53;;
22060;SDS011;11194;48.092;-1.382;2023-07-13T06:35:34;12.52;;;5.13;;
22060;SDS011;11194;48.092;-1.382;2023-07-13T06:38:01;12.02;;;4.95;;
22060;SDS011;11194;48.092;-1.382;2023-07-13T06:40:34;9.77;;;4.55;;
22060;SDS011;11194;48.092;-1.382;2023-07-13T06:43:00;10.48;;;3.88;;
22060;SDS011;11194;48.092;-1.382;2023-07-13T06:45:27;10.52;;;5.07;;
22060;SDS011;11194;48.092;-1.382;2023-07-13T06:47:53;6.68;;;4.10;;
22060;SDS011;11194;48.092;-1.382;2023-07-13T06:50:20;10.38;;;4.45;;
22060;SDS011;11194;48.092;-1.382;2023-07-13T06:52:46;7.72;;;3.67;;
22060;SDS011;11194;48.092;-1.382;2023-07-13T06:55:13;9.52;;;4.05;;
22060;SDS011;11194;48.092;-1.382;2023-07-13T06:57:39;9.05;;;4.30;;
22060;SDS011;11194;48.092;-1.382;2023-07-13T07:00:06;7.93;;;3.80;;
22060;SDS011;11194;48.092;-1.382;2023-07-13T07:02:38;13.65;;;4.38;;
22060;SDS011;11194;48.092;-1.382;2023-07-13T07:05:05;8.00;;;3.95;;
22060;SDS011;11194;48.092;-1.382;2023-07-13T07:07:32;8.63;;;4.03;;
22060;SDS011;11194;48.092;-1.382;2023-07-13T07:09:58;6.85;;;3.88;;
22060;SDS011;11194;48.092;-1.382;2023-07-13T07:12:25;9.82;;;3.88;;
22060;SDS011;11194;48.092;-1.382;2023-07-13T07:14:51;8.57;;;4.15;;
22060;SDS011;11194;48.092;-1.382;2023-07-13T07:17:18;14.90;;;4.03;;
22060;SDS011;11194;48.092;-1.382;2023-07-13T07:19:44;10.95;;;3.58;;
22060;SDS011;11194;48.092;-1.382;2023-07-13T07:22:11;7.38;;;3.75;;
22060;SDS011;11194;48.092;-1.382;2023-07-13T07:24:37;7.95;;;3.53;;
22060;SDS011;11194;48.092;-1.382;2023-07-13T07:27:04;8.45;;;3.70;;
22060;SDS011;11194;48.092;-1.382;2023-07-13T07:29:31;5.25;;;3.20;;
22060;SDS011;11194;48.092;-1.382;2023-07-13T07:31:58;12.23;;;3.30;;
22060;SDS011;11194;48.092;-1.382;2023-07-13T07:34:25;7.95;;;3.75;;
22060;SDS011;11194;48.092;-1.382;2023-07-13T07:36:53;7.25;;;3.65;;
22060;SDS011;11194;48.092;-1.382;2023-07-13T07:39:19;6.57;;;3.20;;
22060;SDS011;11194;48.092;-1.382;2023-07-13T07:41:46;9.60;;;3.45;;
22060;SDS011;11194;48.092;-1.382;2023-07-13T07:44:12;8.60;;;4.05;;
22060;SDS011;11194;48.092;-1.382;2023-07-13T07:46:39;8.52;;;3.38;;
22060;SDS011;11194;48.092;-1.382;2023-07-13T07:49:06;5.88;;;3.45;;
22060;SDS011;11194;48.092;-1.382;2023-07-13T07:51:32;5.18;;;3.13;;
22060;SDS011;11194;48.092;-1.382;2023-07-13T07:53:59;9.68;;;3.47;;
22060;SDS011;11194;48.092;-1.382;2023-07-13T07:56:25;5.57;;;3.55;;
22060;SDS011;11194;48.092;-1.382;2023-07-13T07:58:52;9.13;;;3.58;;
22060;SDS011;11194;48.092;-1.382;2023-07-13T08:01:18;6.90;;;3.50;;
22060;SDS011;11194;48.092;-1.382;2023-07-13T08:03:45;10.15;;;3.28;;
22060;SDS011;11194;48.092;-1.382;2023-07-13T08:06:11;8.05;;;3.22;;
22060;SDS011;11194;48.092;-1.382;2023-07-13T08:08:38;5.55;;;3.28;;
22060;SDS011;11194;48.092;-1.382;2023-07-13T08:11:05;7.55;;;3.30;;
22060;SDS011;11194;48.092;-1.382;2023-07-13T08:13:32;6.72;;;3.22;;
22060;SDS011;11194;48.092;-1.382;2023-07-13T08:15:59;5.72;;;3.20;;
22060;SDS011;11194;48.092;-1.382;2023-07-13T08:18:25;5.60;;;3.53;;
22060;SDS011;11194;48.092;-1.382;2023-07-13T08:20:53;13.70;;;3.70;;
22060;SDS011;11194;48.092;-1.382;2023-07-13T08:23:24;12.88;;;4.05;;
22060;SDS011;11194;48.092;-1.382;2023-07-13T08:25:56;12.10;;;3.65;;
22060;SDS011;11194;48.092;-1.382;2023-07-13T08:28:23;9.68;;;4.32;;
22060;SDS011;11194;48.092;-1.382;2023-07-13T08:30:50;9.75;;;3.67;;
22060;SDS011;11194;48.092;-1.382;2023-07-13T08:33:17;7.88;;;3.45;;
22060;SDS011;11194;48.092;-1.382;2023-07-13T08:35:47;9.35;;;3.75;;
22060;SDS011;11194;48.092;-1.382;2023-07-13T08:38:14;7.93;;;3.28;;
22060;SDS011;11194;48.092;-1.382;2023-07-13T08:40:40;9.27;;;3.80;;
22060;SDS011;11194;48.092;-1.382;2023-07-13T08:43:15;7.38;;;2.97;;
22060;SDS011;11194;48.092;-1.382;2023-07-13T08:48:13;7.55;;;2.72;;
22060;SDS011;11194;48.092;-1.382;2023-07-13T08:51:26;7.93;;;2.75;;
22060;SDS011;11194;48.092;-1.382;2023-07-13T08:53:37;5.90;;;2.70;;
22060;SDS011;11194;48.092;-1.382;2023-07-13T08:56:05;8.10;;;3.22;;
22060;SDS011;11194;48.092;-1.382;2023-07-13T08:58:35;4.85;;;2.42;;
22060;SDS011;11194;48.092;-1.382;2023-07-13T09:01:05;4.13;;;2.30;;
22060;SDS011;11194;48.092;-1.382;2023-07-13T09:03:38;7.20;;;2.85;;
22060;SDS011;11194;48.092;-1.382;2023-07-13T09:06:07;5.20;;;2.40;;
22060;SDS011;11194;48.092;-1.382;2023-07-13T09:13:57;4.85;;;2.42;;
22060;SDS011;11194;48.092;-1.382;2023-07-13T09:16:23;3.97;;;1.92;;
22060;SDS011;11194;48.092;-1.382;2023-07-13T09:18:54;4.00;;;2.25;;
22060;SDS011;11194;48.092;-1.382;2023-07-13T09:21:30;4.53;;;2.10;;
22060;SDS011;11194;48.092;-1.382;2023-07-13T09:24:03;6.07;;;2.25;;
22060;SDS011;11194;48.092;-1.382;2023-07-13T09:26:31;7.28;;;2.40;;
22060;SDS011;11194;48.092;-1.382;2023-07-13T09:28:59;4.30;;;2.30;;
22060;SDS011;11194;48.092;-1.382;2023-07-13T09:31:33;4.88;;;2.75;;
22060;SDS011;11194;48.092;-1.382;2023-07-13T09:34:00;7.22;;;2.47;;
22060;SDS011;11194;48.092;-1.382;2023-07-13T09:36:28;4.03;;;2.20;;
22060;SDS011;11194;48.092;-1.382;2023-07-13T09:46:47;5.07;;;2.17;;
22060;SDS011;11194;48.092;-1.382;2023-07-13T09:49:18;4.07;;;2.00;;
22060;SDS011;11194;48.092;-1.382;2023-07-13T09:51:45;4.53;;;2.40;;
22060;SDS011;11194;48.092;-1.382;2023-07-13T09:54:21;4.25;;;2.00;;
22060;SDS011;11194;48.092;-1.382;2023-07-13T09:56:56;5.03;;;2.40;;
22060;SDS011;11194;48.092;-1.382;2023-07-13T09:59:23;4.57;;;2.83;;
22060;SDS011;11194;48.092;-1.382;2023-07-13T10:01:50;4.85;;;2.00;;
22060;SDS011;11194;48.092;-1.382;2023-07-13T10:04:17;5.30;;;1.98;;
22060;SDS011;11194;48.092;-1.382;2023-07-13T10:06:45;7.30;;;2.67;;
22060;SDS011;11194;48.092;-1.382;2023-07-13T10:09:15;5.28;;;1.88;;
22060;SDS011;11194;48.092;-1.382;2023-07-13T10:11:42;6.50;;;1.77;;
22060;SDS011;11194;48.092;-1.382;2023-07-13T10:14:11;3.55;;;1.90;;
22060;SDS011;11194;48.092;-1.382;2023-07-13T10:16:38;4.55;;;1.83;;
22060;SDS011;11194;48.092;-1.382;2023-07-13T10:19:26;3.42;;;1.70;;
22060;SDS011;11194;48.092;-1.382;2023-07-13T10:21:57;4.28;;;1.80;;
22060;SDS011;11194;48.092;-1.382;2023-07-13T10:24:25;5.80;;;1.92;;
22060;SDS011;11194;48.092;-1.382;2023-07-13T10:26:57;2.92;;;1.70;;
22060;SDS011;11194;48.092;-1.382;2023-07-13T10:29:25;3.42;;;1.70;;
22060;SDS011;11194;48.092;-1.382;2023-07-13T10:31:52;4.35;;;1.90;;
22060;SDS011;11194;48.092;-1.382;2023-07-13T10:34:19;3.65;;;1.90;;
22060;SDS011;11194;48.092;-1.382;2023-07-13T10:36:46;3.05;;;1.70;;
22060;SDS011;11194;48.092;-1.382;2023-07-13T10:39:20;4.10;;;1.92;;
22060;SDS011;11194;48.092;-1.382;2023-07-13T10:41:50;4.50;;;1.83;;
22060;SDS011;11194;48.092;-1.382;2023-07-13T10:44:20;2.75;;;1.70;;
22060;SDS011;11194;48.092;-1.382;2023-07-13T10:46:50;3.78;;;2.03;;
22060;SDS011;11194;48.092;-1.382;2023-07-13T10:49:17;4.50;;;1.70;;
22060;SDS011;11194;48.092;-1.382;2023-07-13T10:51:47;3.22;;;1.83;;
22060;SDS011;11194;48.092;-1.382;2023-07-13T10:54:18;4.88;;;1.75;;
22060;SDS011;11194;48.092;-1.382;2023-07-13T10:56:49;2.78;;;1.67;;
22060;SDS011;11194;48.092;-1.382;2023-07-13T10:59:23;3.97;;;1.73;;
22060;SDS011;11194;48.092;-1.382;2023-07-13T11:01:58;4.28;;;1.63;;
22060;SDS011;11194;48.092;-1.382;2023-07-13T11:04:39;3.65;;;1.25;;
22060;SDS011;11194;48.092;-1.382;2023-07-13T11:07:16;3.85;;;1.70;;
22060;SDS011;11194;48.092;-1.382;2023-07-13T11:09:43;2.15;;;1.52;;
22060;SDS011;11194;48.092;-1.382;2023-07-13T11:14:44;5.80;;;1.90;;
22060;SDS011;11194;48.092;-1.382;2023-07-13T11:20:20;2.67;;;1.70;;
22060;SDS011;11194;48.092;-1.382;2023-07-13T11:22:46;3.85;;;1.60;;
22060;SDS011;11194;48.092;-1.382;2023-07-13T11:25:32;3.10;;;1.70;;
22060;SDS011;11194;48.092;-1.382;2023-07-13T11:28:21;3.47;;;1.65;;
22060;SDS011;11194;48.092;-1.382;2023-07-13T11:36:03;3.63;;;1.50;;
22060;SDS011;11194;48.092;-1.382;2023-07-13T11:38:48;4.05;;;1.50;;
22060;SDS011;11194;48.092;-1.382;2023-07-13T11:41:19;2.95;;;1.70;;
22060;SDS011;11194;48.092;-1.382;2023-07-13T11:43:50;3.05;;;1.80;;
22060;SDS011;11194;48.092;-1.382;2023-07-13T11:46:24;3.17;;;2.00;;
22060;SDS011;11194;48.092;-1.382;2023-07-13T11:48:51;3.13;;;1.75;;
22060;SDS011;11194;48.092;-1.382;2023-07-13T11:51:28;3.67;;;1.90;;
22060;SDS011;11194;48.092;-1.382;2023-07-13T11:53:56;3.03;;;1.80;;
22060;SDS011;11194;48.092;-1.382;2023-07-13T11:56:23;3.35;;;1.70;;
22060;SDS011;11194;48.092;-1.382;2023-07-13T11:58:51;3.92;;;2.00;;
22060;SDS011;11194;48.092;-1.382;2023-07-13T12:01:24;3.88;;;1.73;;
22060;SDS011;11194;48.092;-1.382;2023-07-13T12:03:51;3.80;;;1.88;;
22060;SDS011;11194;48.092;-1.382;2023-07-13T12:06:25;3.15;;;1.75;;
22060;SDS011;11194;48.092;-1.382;2023-07-13T12:08:55;3.45;;;1.90;;
22060;SDS011;11194;48.092;-1.382;2023-07-13T12:11:23;2.90;;;2.00;;
22060;SDS011;11194;48.092;-1.382;2023-07-13T12:13:50;3.33;;;1.60;;
22060;SDS011;11194;48.092;-1.382;2023-07-13T12:16:26;3.75;;;2.08;;
22060;SDS011;11194;48.092;-1.382;2023-07-13T12:18:53;2.75;;;1.83;;
22060;SDS011;11194;48.092;-1.382;2023-07-13T12:21:22;2.85;;;1.95;;
22060;SDS011;11194;48.092;-1.382;2023-07-13T12:23:50;3.65;;;1.52;;
22060;SDS011;11194;48.092;-1.382;2023-07-13T12:26:17;3.63;;;1.80;;
22060;SDS011;11194;48.092;-1.382;2023-07-13T12:31:53;3.28;;;1.92;;
22060;SDS011;11194;48.092;-1.382;2023-07-13T12:34:07;3.72;;;1.95;;
22060;SDS011;11194;48.092;-1.382;2023-07-13T12:36:37;2.88;;;1.70;;
22060;SDS011;11194;48.092;-1.382;2023-07-13T12:39:21;2.45;;;1.48;;
22060;SDS011;11194;48.092;-1.382;2023-07-13T12:41:49;2.90;;;1.63;;
22060;SDS011;11194;48.092;-1.382;2023-07-13T12:44:17;2.53;;;1.65;;
22060;SDS011;11194;48.092;-1.382;2023-07-13T12:47:03;4.03;;;1.83;;
22060;SDS011;11194;48.092;-1.382;2023-07-13T12:49:40;4.63;;;1.98;;
22060;SDS011;11194;48.092;-1.382;2023-07-13T12:52:16;3.83;;;1.77;;
22060;SDS011;11194;48.092;-1.382;2023-07-13T12:54:52;3.67;;;1.50;;
22060;SDS011;11194;48.092;-1.382;2023-07-13T12:57:22;3.15;;;1.80;;
22060;SDS011;11194;48.092;-1.382;2023-07-13T12:59:51;2.85;;;1.58;;
22060;SDS011;11194;48.092;-1.382;2023-07-13T13:02:32;2.67;;;1.55;;
22060;SDS011;11194;48.092;-1.382;2023-07-13T13:05:00;2.88;;;1.80;;
22060;SDS011;11194;48.092;-1.382;2023-07-13T13:07:29;2.72;;;1.83;;
22060;SDS011;11194;48.092;-1.382;2023-07-13T13:09:56;2.83;;;1.88;;
22060;SDS011;11194;48.092;-1.382;2023-07-13T13:12:22;3.90;;;1.70;;
22060;SDS011;11194;48.092;-1.382;2023-07-13T13:14:52;2.42;;;1.75;;
22060;SDS011;11194;48.092;-1.382;2023-07-13T13:17:19;2.90;;;1.88;;
22060;SDS011;11194;48.092;-1.382;2023-07-13T13:19:46;4.03;;;1.90;;
22060;SDS011;11194;48.092;-1.382;2023-07-13T13:22:13;4.18;;;1.70;;
22060;SDS011;11194;48.092;-1.382;2023-07-13T13:24:39;4.75;;;1.50;;
22060;SDS011;11194;48.092;-1.382;2023-07-13T13:27:09;3.70;;;1.73;;
22060;SDS011;11194;48.092;-1.382;2023-07-13T13:29:40;6.00;;;1.90;;
22060;SDS011;11194;48.092;-1.382;2023-07-13T13:32:09;3.97;;;2.13;;
22060;SDS011;11194;48.092;-1.382;2023-07-13T13:34:36;2.55;;;1.58;;
22060;SDS011;11194;48.092;-1.382;2023-07-13T13:37:02;2.58;;;1.73;;
22060;SDS011;11194;48.092;-1.382;2023-07-13T13:39:32;3.28;;;1.90;;
22060;SDS011;11194;48.092;-1.382;2023-07-13T13:42:00;3.85;;;1.80;;
22060;SDS011;11194;48.092;-1.382;2023-07-13T13:44:26;6.70;;;2.13;;
22060;SDS011;11194;48.092;-1.382;2023-07-13T13:46:53;2.38;;;1.90;;
22060;SDS011;11194;48.092;-1.382;2023-07-13T13:49:24;2.38;;;1.60;;
22060;SDS011;11194;48.092;-1.382;2023-07-13T13:51:51;4.97;;;2.15;;
22060;SDS011;11194;48.092;-1.382;2023-07-13T13:54:18;4.53;;;1.65;;
22060;SDS011;11194;48.092;-1.382;2023-07-13T13:56:49;3.13;;;1.70;;
22060;SDS011;11194;48.092;-1.382;2023-07-13T13:59:15;4.00;;;1.80;;
22060;SDS011;11194;48.092;-1.382;2023-07-13T14:01:42;3.22;;;1.95;;
22060;SDS011;11194;48.092;-1.382;2023-07-13T14:04:13;3.15;;;2.00;;
22060;SDS011;11194;48.092;-1.382;2023-07-13T14:06:40;2.38;;;1.88;;
22060;SDS011;11194;48.092;-1.382;2023-07-13T14:09:09;3.60;;;2.10;;
22060;SDS011;11194;48.092;-1.382;2023-07-13T14:11:36;3.20;;;1.90;;
22060;SDS011;11194;48.092;-1.382;2023-07-13T14:14:02;3.13;;;1.70;;
22060;SDS011;11194;48.092;-1.382;2023-07-13T14:16:30;3.90;;;1.95;;
22060;SDS011;11194;48.092;-1.382;2023-07-13T14:18:57;3.58;;;1.90;;
22060;SDS011;11194;48.092;-1.382;2023-07-13T14:21:25;3.75;;;1.98;;
22060;SDS011;11194;48.092;-1.382;2023-07-13T14:23:52;4.90;;;2.25;;
22060;SDS011;11194;48.092;-1.382;2023-07-13T14:26:19;3.72;;;2.00;;
22060;SDS011;11194;48.092;-1.382;2023-07-13T14:28:50;4.28;;;1.90;;
22060;SDS011;11194;48.092;-1.382;2023-07-13T14:31:17;5.95;;;2.13;;
22060;SDS011;11194;48.092;-1.382;2023-07-13T14:33:44;2.92;;;1.83;;
22060;SDS011;11194;48.092;-1.382;2023-07-13T14:36:21;3.97;;;1.95;;
22060;SDS011;11194;48.092;-1.382;2023-07-13T14:38:49;3.58;;;1.80;;
22060;SDS011;11194;48.092;-1.382;2023-07-13T14:41:16;3.03;;;1.80;;
22060;SDS011;11194;48.092;-1.382;2023-07-13T14:43:42;3.28;;;1.80;;
22060;SDS011;11194;48.092;-1.382;2023-07-13T14:46:29;4.25;;;1.90;;
22060;SDS011;11194;48.092;-1.382;2023-07-13T14:48:59;2.90;;;1.92;;
22060;SDS011;11194;48.092;-1.382;2023-07-13T14:51:27;3.33;;;2.03;;
22060;SDS011;11194;48.092;-1.382;2023-07-13T14:53:53;4.10;;;2.10;;
22060;SDS011;11194;48.092;-1.382;2023-07-13T14:56:19;3.65;;;1.90;;
22060;SDS011;11194;48.092;-1.382;2023-07-13T14:58:46;3.72;;;1.80;;
22060;SDS011;11194;48.092;-1.382;2023-07-13T15:01:13;3.67;;;1.90;;
22060;SDS011;11194;48.092;-1.382;2023-07-13T15:03:43;2.88;;;1.75;;
22060;SDS011;11194;48.092;-1.382;2023-07-13T15:06:11;4.10;;;1.92;;
22060;SDS011;11194;48.092;-1.382;2023-07-13T15:08:38;4.65;;;2.00;;